createdAt,value
2018-04-23T00:01:40.026Z,8.70
2018-04-23T00:04:08.387Z,7.37
2018-04-23T00:06:36.741Z,11.80
2018-04-23T00:09:05.582Z,7.63
2018-04-23T00:11:33.944Z,8.20
2018-04-23T00:14:02.318Z,14.23
2018-04-23T00:16:30.675Z,12.23
2018-04-23T00:18:59.018Z,8.10
2018-04-23T00:21:27.370Z,8.10
2018-04-23T00:23:55.751Z,7.73
2018-04-23T00:26:24.122Z,7.50
2018-04-23T00:28:52.519Z,15.70
2018-04-23T00:31:20.867Z,10.43
2018-04-23T00:33:49.222Z,9.60
2018-04-23T00:36:18.050Z,10.20
2018-04-23T00:38:46.445Z,10.67
2018-04-23T00:41:14.809Z,9.50
2018-04-23T00:43:43.204Z,9.80
2018-04-23T00:46:11.555Z,7.83
2018-04-23T00:48:39.904Z,8.87
2018-04-23T00:51:08.274Z,8.43
2018-04-23T00:53:39.779Z,13.40
2018-04-23T00:56:08.153Z,8.93
2018-04-23T00:58:36.495Z,8.37
2018-04-23T01:01:04.846Z,9.07
2018-04-23T01:03:33.702Z,8.10
2018-04-23T01:06:02.094Z,10.30
2018-04-23T01:08:30.449Z,8.97
2018-04-23T01:10:58.817Z,10.80
2018-04-23T01:13:27.219Z,9.50
2018-04-23T01:15:55.574Z,10.17
2018-04-23T01:18:23.978Z,8.90
2018-04-23T01:20:52.326Z,9.00
2018-04-23T01:23:20.686Z,10.47
2018-04-23T01:25:49.037Z,16.63
2018-04-23T01:28:17.477Z,10.93
2018-04-23T01:30:45.825Z,10.33
2018-04-23T01:33:14.658Z,11.33
2018-04-23T01:35:43.049Z,16.33
2018-04-23T01:38:11.398Z,12.53
2018-04-23T01:40:39.778Z,11.83
2018-04-23T01:43:08.149Z,12.60
2018-04-23T01:45:36.529Z,17.50
2018-04-23T01:48:04.929Z,16.30
2018-04-23T01:50:33.310Z,12.97
2018-04-23T01:53:02.406Z,13.37
2018-04-23T01:55:30.790Z,13.23
2018-04-23T01:57:59.141Z,14.90
2018-04-23T02:00:27.507Z,17.47
2018-04-23T02:02:55.862Z,16.27
2018-04-23T02:05:24.720Z,12.97
2018-04-23T02:07:53.097Z,18.40
2018-04-23T02:10:21.576Z,15.13
2018-04-23T02:12:49.924Z,13.97
2018-04-23T02:15:18.357Z,13.80
2018-04-23T02:17:46.720Z,17.93
2018-04-23T02:20:15.268Z,13.80
2018-04-23T02:22:43.621Z,18.70
2018-04-23T02:25:12.402Z,14.50
2018-04-23T02:27:41.160Z,13.73
2018-04-23T02:30:09.585Z,15.17
2018-04-23T02:32:37.965Z,16.80
2018-04-23T02:35:06.343Z,15.53
2018-04-23T02:37:34.766Z,19.10
2018-04-23T02:40:03.145Z,15.27
2018-04-23T02:42:31.512Z,14.80
2018-04-23T02:44:59.901Z,15.70
2018-04-23T02:47:28.274Z,17.23
2018-04-23T02:49:56.673Z,17.90
2018-04-23T02:52:25.130Z,15.17
2018-04-23T02:54:53.478Z,17.20
2018-04-23T02:57:21.837Z,15.33
2018-04-23T02:59:50.591Z,17.33
2018-04-23T03:02:18.959Z,20.00
2018-04-23T03:04:47.313Z,15.87
2018-04-23T03:07:16.541Z,16.37
2018-04-23T03:09:44.919Z,18.57
2018-04-23T03:12:13.288Z,16.77
2018-04-23T03:14:41.686Z,17.03
2018-04-23T03:17:10.067Z,16.03
2018-04-23T03:19:38.438Z,16.17
2018-04-23T03:22:07.085Z,16.90
2018-04-23T03:24:35.442Z,19.30
2018-04-23T03:27:04.197Z,16.67
2018-04-23T03:29:32.563Z,18.03
2018-04-23T03:32:00.941Z,15.53
2018-04-23T03:34:30.379Z,18.67
2018-04-23T03:36:59.645Z,16.60
2018-04-23T03:39:28.019Z,17.20
2018-04-23T03:41:56.405Z,16.80
2018-04-23T03:44:24.828Z,20.57
2018-04-23T03:46:53.159Z,19.97
2018-04-23T03:49:21.665Z,16.87
2018-04-23T03:51:50.122Z,20.40
2018-04-23T03:54:18.493Z,17.00
2018-04-23T03:56:47.536Z,18.97
2018-04-23T03:59:16.287Z,20.17
2018-04-23T04:01:44.671Z,18.63
2018-04-23T04:04:13.022Z,15.00
2018-04-23T04:06:41.408Z,15.70
2018-04-23T04:09:09.802Z,20.93
2018-04-23T04:11:38.182Z,16.50
2018-04-23T04:14:24.273Z,17.90
2018-04-23T04:16:56.439Z,14.40
2018-04-23T04:19:24.774Z,13.63
2018-04-23T04:21:53.745Z,12.90
2018-04-23T04:24:22.494Z,15.80
2018-04-23T04:26:50.855Z,15.80
2018-04-23T04:29:19.213Z,18.37
2018-04-23T04:31:47.981Z,13.13
2018-04-23T04:34:16.835Z,16.10
2018-04-23T04:36:45.214Z,17.93
2018-04-23T04:39:13.593Z,12.00
2018-04-23T04:41:41.971Z,10.20
2018-04-23T04:44:10.327Z,11.20
2018-04-23T04:46:38.687Z,15.57
2018-04-23T04:49:07.102Z,9.30
2018-04-23T04:51:35.467Z,14.77
2018-04-23T04:54:03.817Z,10.57
2018-04-23T04:56:32.585Z,9.33
2018-04-23T04:59:01.095Z,16.10
2018-04-23T05:01:29.455Z,9.60
2018-04-23T05:03:58.200Z,12.27
2018-04-23T05:06:26.567Z,8.73
2018-04-23T05:08:54.920Z,9.40
2018-04-23T05:11:23.286Z,10.23
2018-04-23T05:13:52.113Z,10.60
2018-04-23T05:16:20.466Z,8.27
2018-04-23T05:18:48.814Z,14.20
2018-04-23T05:21:17.187Z,11.43
2018-04-23T05:23:45.592Z,7.50
2018-04-23T05:26:14.353Z,10.23
2018-04-23T05:28:42.726Z,8.37
2018-04-23T05:31:11.186Z,18.00
2018-04-23T05:33:39.541Z,6.87
2018-04-23T05:36:07.906Z,11.83
2018-04-23T05:38:36.404Z,19.20
2018-04-23T05:41:04.784Z,17.67
2018-04-23T05:43:33.140Z,12.40
2018-04-23T05:46:01.490Z,9.07
2018-04-23T05:48:29.844Z,8.17
2018-04-23T05:50:58.209Z,10.93
2018-04-23T05:53:26.569Z,6.77
2018-04-23T05:55:54.943Z,7.77
2018-04-23T05:58:23.350Z,7.87
2018-04-23T06:00:51.729Z,10.27
2018-04-23T06:03:20.140Z,11.13
2018-04-23T06:05:48.497Z,12.00
2018-04-23T06:08:16.858Z,7.37
2018-04-23T06:10:45.229Z,13.87
2018-04-23T06:13:13.617Z,18.00
2018-04-23T06:15:41.982Z,7.93
2018-04-23T06:18:10.322Z,13.03
2018-04-23T06:20:39.054Z,7.53
2018-04-23T06:23:07.427Z,12.30
2018-04-23T06:25:35.773Z,8.80
2018-04-23T06:28:04.561Z,8.67
2018-04-23T06:30:33.304Z,10.07
2018-04-23T06:33:01.646Z,9.97
2018-04-23T06:35:30.001Z,7.57
2018-04-23T06:37:58.749Z,10.83
2018-04-23T06:40:27.101Z,10.90
2018-04-23T06:42:55.459Z,17.67
2018-04-23T06:45:23.829Z,10.93
2018-04-23T06:47:52.571Z,12.47
2018-04-23T06:50:20.926Z,7.33
2018-04-23T06:52:49.269Z,14.20
2018-04-23T06:55:18.019Z,22.50
2018-04-23T06:57:46.371Z,17.03
2018-04-23T07:00:14.727Z,9.90
2018-04-23T07:02:43.129Z,12.73
2018-04-23T07:05:11.546Z,6.77
2018-04-23T07:07:39.958Z,9.37
2018-04-23T07:10:08.391Z,8.67
2018-04-23T07:12:36.952Z,8.90
2018-04-23T07:15:05.423Z,7.87
2018-04-23T07:17:33.903Z,9.73
2018-04-23T07:20:02.338Z,28.43
2018-04-23T07:22:30.815Z,7.63
2018-04-23T07:24:59.255Z,10.77
2018-04-23T07:27:27.728Z,9.37
2018-04-23T07:29:56.196Z,20.97
2018-04-23T07:32:24.646Z,11.83
2018-04-23T07:34:53.481Z,8.57
2018-04-23T07:37:21.925Z,4.83
2018-04-23T07:39:50.755Z,7.70
2018-04-23T07:42:19.200Z,5.23
2018-04-23T07:44:48.050Z,5.83
2018-04-23T07:47:16.608Z,7.80
2018-04-23T07:49:45.087Z,4.00
2018-04-23T07:52:13.534Z,3.43
2018-04-23T07:54:42.463Z,3.60
2018-04-23T07:57:10.934Z,3.70
2018-04-23T07:59:39.378Z,3.93
2018-04-23T08:02:08.224Z,8.90
2018-04-23T08:04:36.682Z,3.00
2018-04-23T08:07:05.118Z,5.50
2018-04-23T08:09:33.558Z,4.63
2018-04-23T08:12:02.005Z,5.03
2018-04-23T08:14:30.507Z,11.13
2018-04-23T08:16:58.994Z,5.17
2018-04-23T08:19:27.447Z,4.80
2018-04-23T08:21:55.962Z,5.47
2018-04-23T08:24:24.407Z,5.60
2018-04-23T08:26:52.862Z,3.03
2018-04-23T08:29:21.307Z,4.67
2018-04-23T08:31:49.818Z,5.77
2018-04-23T08:34:18.354Z,7.23
2018-04-23T08:36:46.799Z,7.57
2018-04-23T08:39:15.732Z,7.20
2018-04-23T08:41:44.382Z,13.10
2018-04-23T08:44:13.310Z,10.50
2018-04-23T08:46:41.792Z,9.90
2018-04-23T08:49:10.282Z,13.60
2018-04-23T08:51:38.732Z,5.63
2018-04-23T08:54:07.171Z,5.20
2018-04-23T08:56:35.623Z,6.90
2018-04-23T08:59:04.096Z,12.53
2018-04-23T09:01:32.738Z,8.13
2018-04-23T09:04:01.165Z,10.30
2018-04-23T09:06:29.637Z,20.87
2018-04-23T09:08:58.121Z,8.33
2018-04-23T09:11:26.558Z,8.30
2018-04-23T09:13:54.991Z,2.80
2018-04-23T09:16:23.437Z,3.57
2018-04-23T09:18:52.374Z,10.30
2018-04-23T09:21:20.826Z,14.93
2018-04-23T09:23:49.325Z,12.83
2018-04-23T09:26:17.759Z,9.50
2018-04-23T09:28:46.281Z,7.50
2018-04-23T09:31:14.723Z,19.13
2018-04-23T09:33:43.561Z,12.70
2018-04-23T09:36:12.000Z,16.10
2018-04-23T09:38:40.923Z,27.37
2018-04-23T09:41:09.364Z,10.93
2018-04-23T09:43:38.225Z,12.37
2018-04-23T09:46:06.677Z,10.87
2018-04-23T09:48:35.161Z,18.60
2018-04-23T09:51:03.619Z,19.10
2018-04-23T09:53:32.059Z,15.47
2018-04-23T09:56:00.594Z,14.90
2018-04-23T09:58:29.032Z,21.90
2018-04-23T10:00:58.748Z,19.00
2018-04-23T10:03:41.996Z,19.10
2018-04-23T10:06:10.442Z,18.47
2018-04-23T10:08:39.307Z,18.47
2018-04-23T10:11:07.773Z,23.43
2018-04-23T10:13:36.261Z,28.17
2018-04-23T10:16:04.703Z,24.73
2018-04-23T10:18:33.619Z,19.90
2018-04-23T10:21:02.119Z,19.27
2018-04-23T10:23:30.550Z,24.00
2018-04-23T10:25:59.403Z,21.23
2018-04-23T10:28:27.852Z,22.30
2018-04-23T10:30:56.303Z,21.37
2018-04-23T10:33:25.144Z,34.00
2018-04-23T10:35:53.604Z,35.40
2018-04-23T10:38:22.047Z,42.73
2018-04-23T10:40:51.722Z,44.97
2018-04-23T10:43:20.178Z,24.70
2018-04-23T10:45:48.622Z,30.63
2018-04-23T10:48:17.450Z,16.43
2018-04-23T10:50:45.923Z,24.57
2018-04-23T10:53:14.370Z,22.43
2018-04-23T10:55:43.207Z,18.70
2018-04-23T10:58:11.671Z,14.53
2018-04-23T11:00:40.124Z,19.93
2018-04-23T11:03:08.963Z,15.30
2018-04-23T11:05:37.423Z,18.13
2018-04-23T11:08:05.903Z,26.73
2018-04-23T11:10:34.310Z,11.87
2018-04-23T11:13:02.875Z,13.30
2018-04-23T11:15:31.343Z,22.63
2018-04-23T11:17:59.786Z,18.40
2018-04-23T11:20:28.332Z,17.73
2018-04-23T11:22:56.791Z,11.67
2018-04-23T11:25:25.225Z,13.93
2018-04-23T11:27:53.683Z,13.10
2018-04-23T11:30:22.123Z,9.40
2018-04-23T11:32:51.719Z,6.57
2018-04-23T11:35:20.635Z,9.17
2018-04-23T11:37:49.080Z,8.90
2018-04-23T11:40:18.007Z,7.00
2018-04-23T11:42:46.483Z,15.57
2018-04-23T11:45:14.919Z,8.77
2018-04-23T11:47:43.359Z,10.20
2018-04-23T11:50:11.814Z,7.40
2018-04-23T11:52:40.312Z,21.07
2018-04-23T11:55:09.623Z,14.87
2018-04-23T11:57:38.065Z,9.00
2018-04-23T12:00:06.582Z,6.77
2018-04-23T12:02:35.061Z,16.77
2018-04-23T12:05:03.499Z,12.40
2018-04-23T12:07:32.346Z,14.70
2018-04-23T12:10:00.786Z,10.40
2018-04-23T12:12:29.244Z,16.33
2018-04-23T12:14:58.196Z,15.00
2018-04-23T12:17:26.633Z,10.23
2018-04-23T12:19:55.682Z,18.17
2018-04-23T12:22:24.247Z,23.50
2018-04-23T12:24:52.697Z,20.90
2018-04-23T12:27:21.129Z,19.17
2018-04-23T12:29:49.567Z,12.40
2018-04-23T12:32:18.075Z,11.90
2018-04-23T12:34:46.538Z,12.40
2018-04-23T12:37:15.024Z,11.37
2018-04-23T12:39:43.512Z,20.70
2018-04-23T12:42:11.984Z,12.10
2018-04-23T12:44:40.423Z,13.87
2018-04-23T12:47:09.274Z,28.30
2018-04-23T12:49:37.731Z,15.03
2018-04-23T12:52:06.184Z,22.40
2018-04-23T12:54:35.015Z,13.60
2018-04-23T12:57:03.477Z,11.27
2018-04-23T12:59:31.918Z,16.23
2018-04-23T13:02:00.366Z,14.00
2018-04-23T13:04:28.827Z,16.67
2018-04-23T13:06:57.274Z,14.90
2018-04-23T13:09:26.102Z,14.23
2018-04-23T13:11:54.779Z,11.20
2018-04-23T13:14:23.375Z,8.57
2018-04-23T13:16:51.855Z,13.67
2018-04-23T13:19:20.323Z,15.33
2018-04-23T13:21:48.777Z,15.67
2018-04-23T13:24:17.611Z,11.87
2018-04-23T13:26:46.959Z,12.87
2018-04-23T13:29:15.892Z,14.63
2018-04-23T13:31:44.378Z,17.53
2018-04-23T13:34:12.807Z,11.00
2018-04-23T13:36:41.691Z,23.23
2018-04-23T13:39:10.117Z,22.40
2018-04-23T13:41:38.570Z,17.30
2018-04-23T13:44:07.491Z,17.43
2018-04-23T13:46:35.983Z,9.63
2018-04-23T13:49:04.492Z,14.47
2018-04-23T13:51:32.935Z,12.20
2018-04-23T13:54:01.397Z,10.37
2018-04-23T13:56:29.907Z,30.23
2018-04-23T13:58:58.392Z,18.53
2018-04-23T14:01:26.830Z,13.63
2018-04-23T14:03:55.677Z,21.27
2018-04-23T14:06:24.123Z,14.00
2018-04-23T14:08:52.560Z,10.30
2018-04-23T14:11:21.001Z,13.47
2018-04-23T14:13:49.479Z,11.50
2018-04-23T14:16:17.919Z,20.13
2018-04-23T14:18:46.856Z,11.67
2018-04-23T14:21:15.310Z,10.67
2018-04-23T14:23:43.746Z,12.73
2018-04-23T14:26:12.196Z,10.27
2018-04-23T14:28:40.683Z,17.30
2018-04-23T14:31:09.131Z,11.17
2018-04-23T14:33:37.623Z,10.23
2018-04-23T14:36:06.122Z,13.50
2018-04-23T14:38:34.600Z,11.83
2018-04-23T14:41:03.042Z,8.13
2018-04-23T14:43:31.978Z,16.17
2018-04-23T14:46:00.425Z,19.77
2018-04-23T14:48:29.343Z,8.23
2018-04-23T14:50:57.837Z,17.80
2018-04-23T14:53:26.268Z,10.90
2018-04-23T14:55:55.187Z,14.10
2018-04-23T14:58:23.631Z,8.37
2018-04-23T15:00:52.558Z,8.53
2018-04-23T15:03:20.990Z,7.10
2018-04-23T15:05:50.332Z,14.43
2018-04-23T15:08:18.820Z,5.77
2018-04-23T15:10:47.719Z,8.70
2018-04-23T15:13:16.202Z,8.50
2018-04-23T15:15:44.688Z,9.50
2018-04-23T15:18:13.174Z,9.60
2018-04-23T15:20:41.610Z,5.90
2018-04-23T15:23:10.539Z,7.93
2018-04-23T15:25:38.982Z,6.17
2018-04-23T15:28:07.908Z,7.10
2018-04-23T15:30:36.391Z,4.10
2018-04-23T15:33:06.512Z,4.40
2018-04-23T15:35:34.991Z,15.20
2018-04-23T15:38:03.472Z,7.43
2018-04-23T15:40:31.907Z,8.13
2018-04-23T15:43:00.743Z,4.83
2018-04-23T15:45:29.181Z,4.00
2018-04-23T15:47:58.110Z,5.93
2018-04-23T15:50:26.575Z,4.90
2018-04-23T15:52:55.018Z,5.27
2018-04-23T15:55:23.474Z,6.50
2018-04-23T15:57:51.931Z,5.80
2018-04-23T16:00:20.367Z,5.23
2018-04-23T16:02:48.894Z,3.90
2018-04-23T16:05:17.345Z,14.10
2018-04-23T16:07:46.196Z,4.43
2018-04-23T16:10:15.153Z,4.53
2018-04-23T16:12:43.591Z,4.17
2018-04-23T16:15:12.127Z,9.80
2018-04-23T16:17:40.570Z,6.93
2018-04-23T16:20:09.495Z,3.57
2018-04-23T16:22:37.979Z,2.90
2018-04-23T16:25:06.457Z,5.93
2018-04-23T16:27:34.891Z,5.10
2018-04-23T16:30:03.441Z,3.10
2018-04-23T16:32:32.207Z,4.90
2018-04-23T16:35:00.649Z,3.90
2018-04-23T16:37:29.585Z,6.57
2018-04-23T16:39:58.022Z,4.20
2018-04-23T16:42:26.864Z,3.00
2018-04-23T16:44:55.353Z,3.30
2018-04-23T16:47:23.779Z,6.93
2018-04-23T16:49:52.826Z,4.60
2018-04-23T16:52:21.296Z,10.53
2018-04-23T16:54:49.735Z,12.57
2018-04-23T16:57:18.594Z,12.00
2018-04-23T16:59:47.048Z,7.33
2018-04-23T17:02:15.528Z,4.30
2018-04-23T17:04:43.963Z,4.63
2018-04-23T17:07:12.803Z,4.37
2018-04-23T17:09:41.247Z,4.27
2018-04-23T17:12:09.755Z,4.20
2018-04-23T17:14:38.205Z,6.47
2018-04-23T17:17:07.133Z,5.07
2018-04-23T17:19:35.615Z,5.30
2018-04-23T17:22:04.059Z,4.60
2018-04-23T17:24:32.888Z,4.13
2018-04-23T17:27:01.324Z,9.13
2018-04-23T17:29:30.285Z,11.67
2018-04-23T17:31:58.748Z,4.23
2018-04-23T17:34:27.199Z,3.57
2018-04-23T17:36:55.646Z,4.40
2018-04-23T17:39:24.583Z,3.73
2018-04-23T17:41:53.022Z,3.57
2018-04-23T17:44:21.855Z,16.33
2018-04-23T17:46:50.299Z,7.90
2018-04-23T17:49:19.130Z,5.70
2018-04-23T17:51:47.659Z,4.17
2018-04-23T17:54:16.598Z,5.87
2018-04-23T17:56:45.047Z,9.03
2018-04-23T17:59:13.977Z,5.10
2018-04-23T18:01:42.446Z,9.73
2018-04-23T18:04:10.904Z,4.87
2018-04-23T18:06:39.847Z,6.80
2018-04-23T18:09:08.318Z,5.60
2018-04-23T18:11:36.768Z,6.83
2018-04-23T18:14:05.283Z,7.80
2018-04-23T18:16:33.752Z,8.10
2018-04-23T18:19:02.208Z,8.93
2018-04-23T18:21:30.686Z,5.80
2018-04-23T18:23:59.206Z,13.50
2018-04-23T18:26:27.646Z,9.57
2018-04-23T18:28:56.568Z,7.57
2018-04-23T18:31:25.036Z,17.33
2018-04-23T18:33:53.509Z,33.13
2018-04-23T18:36:22.015Z,12.37
2018-04-23T18:38:50.530Z,18.73
2018-04-23T18:41:19.075Z,14.63
2018-04-23T18:43:47.557Z,11.73
2018-04-23T18:46:16.036Z,12.37
2018-04-23T18:48:44.478Z,11.27
2018-04-23T18:51:13.337Z,12.97
2018-04-23T18:53:41.798Z,13.80
2018-04-23T18:56:10.253Z,16.07
2018-04-23T18:58:38.747Z,13.73
2018-04-23T19:01:07.203Z,13.27
2018-04-23T19:03:36.095Z,14.50
2018-04-23T19:06:04.629Z,12.80
2018-04-23T19:08:33.084Z,21.47
2018-04-23T19:11:01.551Z,16.40
2018-04-23T19:13:30.017Z,12.67
2018-04-23T19:16:24.918Z,22.43
2018-04-23T19:18:53.780Z,21.40
2018-04-23T19:21:22.383Z,14.60
2018-04-23T19:23:51.229Z,30.63
2018-04-23T19:26:19.709Z,25.83
2018-04-23T19:28:48.198Z,18.90
2018-04-23T19:31:16.671Z,15.23
2018-04-23T19:33:45.305Z,16.60
2018-04-23T19:36:13.794Z,26.30
2018-04-23T19:38:42.281Z,26.90
2018-04-23T19:41:10.895Z,19.50
2018-04-23T19:43:39.340Z,19.67
2018-04-23T19:46:08.222Z,20.77
2018-04-23T19:48:36.745Z,17.07
2018-04-23T19:51:05.203Z,24.80
2018-04-23T19:53:33.666Z,16.40
2018-04-23T19:56:02.588Z,16.00
2018-04-23T19:58:31.081Z,22.53
2018-04-23T20:00:59.534Z,14.57
2018-04-23T20:03:27.991Z,16.10
2018-04-23T20:05:56.841Z,10.97
2018-04-23T20:08:25.308Z,13.43
2018-04-23T20:10:53.783Z,20.13
2018-04-23T20:13:22.266Z,14.97
2018-04-23T20:15:50.755Z,12.50
2018-04-23T20:18:19.236Z,24.53
2018-04-23T20:20:47.707Z,13.67
2018-04-23T20:23:16.270Z,11.63
2018-04-23T20:25:44.660Z,18.20
2018-04-23T20:28:13.099Z,14.40
2018-04-23T20:30:41.632Z,13.23
2018-04-23T20:33:10.109Z,12.87
2018-04-23T20:35:38.596Z,13.87
2018-04-23T20:38:07.092Z,10.57
2018-04-23T20:40:35.658Z,12.93
2018-04-23T20:43:04.092Z,9.97
2018-04-23T20:45:32.555Z,11.43
2018-04-23T20:48:00.999Z,32.20
2018-04-23T20:50:29.464Z,10.30
2018-04-23T20:52:57.967Z,11.10
2018-04-23T20:55:26.412Z,8.33
2018-04-23T20:57:55.367Z,14.60
2018-04-23T21:00:23.945Z,8.67
2018-04-23T21:02:52.407Z,10.10
2018-04-23T21:05:20.871Z,7.73
2018-04-23T21:07:49.369Z,10.67
2018-04-23T21:10:17.834Z,9.00
2018-04-23T21:12:46.274Z,12.50
2018-04-23T21:15:14.705Z,7.90
2018-04-23T21:17:43.186Z,11.83
2018-04-23T21:20:11.679Z,8.73
2018-04-23T21:22:40.127Z,8.90
2018-04-23T21:25:08.596Z,7.43
2018-04-23T21:27:37.532Z,8.07
2018-04-23T21:30:06.008Z,7.37
2018-04-23T21:32:34.531Z,11.13
2018-04-23T21:35:02.976Z,8.47
2018-04-23T21:37:31.581Z,7.90
2018-04-23T21:40:00.455Z,7.50
2018-04-23T21:42:28.903Z,8.13
2018-04-23T21:44:57.404Z,9.60
2018-04-23T21:47:25.883Z,9.80
2018-04-23T21:49:54.455Z,10.10
2018-04-23T21:52:22.932Z,9.50
2018-04-23T21:54:51.431Z,12.10
2018-04-23T21:57:19.888Z,9.37
2018-04-23T21:59:48.332Z,9.63
2018-04-23T22:02:16.882Z,8.70
2018-04-23T22:04:45.361Z,8.33
2018-04-23T22:07:13.854Z,9.60
2018-04-23T22:09:42.332Z,8.70
2018-04-23T22:12:10.814Z,11.20
2018-04-23T22:14:39.285Z,8.23
2018-04-23T22:17:07.731Z,8.80
2018-04-23T22:19:36.585Z,7.43
2018-04-23T22:22:05.180Z,11.60
2018-04-23T22:24:33.627Z,12.07
2018-04-23T22:27:02.125Z,8.30
2018-04-23T22:29:30.560Z,7.27
2018-04-23T22:31:59.041Z,10.40
2018-04-23T22:34:27.485Z,11.47
2018-04-23T22:36:55.938Z,10.30
2018-04-23T22:39:24.456Z,9.17
2018-04-23T22:41:52.902Z,8.20
2018-04-23T22:44:21.350Z,7.70
2018-04-23T22:46:49.821Z,9.60
2018-04-23T22:49:18.277Z,8.20
2018-04-23T22:51:46.733Z,9.57
2018-04-23T22:54:15.176Z,13.50
2018-04-23T22:56:43.636Z,9.70
2018-04-23T22:59:12.464Z,8.67
2018-04-23T23:01:40.922Z,9.90
2018-04-23T23:04:09.369Z,10.17
2018-04-23T23:06:37.824Z,8.43
2018-04-23T23:09:07.096Z,9.50
2018-04-23T23:20:27.244Z,11.20
2018-04-23T23:25:52.611Z,12.57
2018-04-23T23:28:20.994Z,11.63
2018-04-23T23:30:49.457Z,10.30
2018-04-23T23:33:17.821Z,10.30
2018-04-23T23:35:46.227Z,8.10
2018-04-23T23:38:14.603Z,11.13
2018-04-23T23:40:42.975Z,10.80
2018-04-23T23:43:11.329Z,10.70
2018-04-23T23:45:39.694Z,8.77
2018-04-23T23:48:08.040Z,16.33
2018-04-23T23:50:36.397Z,30.83
2018-04-23T23:53:04.757Z,7.87
2018-04-23T23:55:33.118Z,10.93
2018-04-23T23:58:01.522Z,8.17
